createdAt,value
2023-05-19T00:00:41.584Z,1.97
2023-05-19T00:01:41.523Z,1.92
2023-05-19T00:02:41.652Z,2.21
2023-05-19T00:03:41.633Z,2.38
2023-05-19T00:04:41.648Z,2.54
2023-05-19T00:05:41.751Z,2.60
2023-05-19T00:06:41.702Z,2.27
2023-05-19T00:07:41.725Z,2.45
2023-05-19T00:08:41.745Z,2.51
2023-05-19T00:09:41.773Z,2.42
2023-05-19T00:10:41.833Z,2.17
2023-05-19T00:11:41.908Z,2.32
2023-05-19T00:12:41.986Z,2.76
2023-05-19T00:13:41.994Z,2.37
2023-05-19T00:14:42.003Z,2.11
2023-05-19T00:15:42.048Z,1.99
2023-05-19T00:16:42.025Z,2.26
2023-05-19T00:17:42.139Z,2.13
2023-05-19T00:18:42.159Z,1.91
2023-05-19T00:19:42.170Z,1.94
2023-05-19T00:20:42.249Z,2.18
2023-05-19T00:21:42.315Z,2.36
2023-05-19T00:22:42.377Z,2.55
2023-05-19T00:23:42.436Z,2.43
2023-05-19T00:24:42.489Z,2.81
2023-05-19T00:25:42.537Z,3.03
2023-05-19T00:26:42.651Z,3.13
2023-05-19T00:27:42.686Z,3.24
2023-05-19T00:28:42.736Z,3.69
2023-05-19T00:29:42.833Z,3.83
2023-05-19T00:30:42.879Z,2.75
2023-05-19T00:31:42.929Z,3.16
2023-05-19T00:32:42.997Z,3.47
2023-05-19T00:33:43.020Z,4.61
2023-05-19T00:34:43.049Z,5.27
2023-05-19T00:35:43.201Z,4.50
2023-05-19T00:36:43.206Z,5.82
2023-05-19T00:37:43.268Z,5.03
2023-05-19T00:38:43.299Z,4.21
2023-05-19T00:39:43.375Z,4.30
2023-05-19T00:40:43.436Z,4.56
2023-05-19T00:41:43.458Z,4.96
2023-05-19T00:42:43.526Z,4.19
2023-05-19T00:43:43.580Z,3.96
2023-05-19T00:44:43.640Z,4.11
2023-05-19T00:45:43.710Z,4.32
2023-05-19T00:46:43.819Z,4.10
2023-05-19T00:47:43.854Z,4.79
2023-05-19T00:48:43.824Z,4.48
2023-05-19T00:49:43.826Z,4.30
2023-05-19T00:50:43.874Z,5.32
2023-05-19T00:51:43.871Z,5.91
2023-05-19T00:52:43.908Z,5.48
2023-05-19T00:53:43.974Z,5.02
2023-05-19T00:54:44.020Z,4.92
2023-05-19T00:55:44.095Z,5.88
2023-05-19T00:56:44.140Z,6.01
2023-05-19T00:57:44.147Z,6.05
2023-05-19T00:58:44.189Z,5.36
2023-05-19T00:59:44.236Z,6.10
2023-05-19T01:00:44.292Z,7.91
2023-05-19T01:01:44.311Z,7.30
2023-05-19T01:02:44.390Z,7.14
2023-05-19T01:03:44.487Z,6.73
2023-05-19T01:04:44.417Z,6.83
2023-05-19T01:05:44.454Z,5.91
2023-05-19T01:06:44.454Z,5.34
2023-05-19T01:07:44.475Z,5.47
2023-05-19T01:08:44.454Z,5.24
2023-05-19T01:09:44.433Z,5.44
2023-05-19T01:10:44.485Z,3.89
2023-05-19T01:11:44.563Z,4.33
2023-05-19T01:12:44.554Z,4.54
2023-05-19T01:13:44.520Z,4.51
2023-05-19T01:14:44.514Z,4.48
2023-05-19T01:15:44.550Z,4.57
2023-05-19T01:16:44.597Z,4.74
2023-05-19T01:17:44.540Z,5.92
2023-05-19T01:18:44.612Z,6.98
2023-05-19T01:19:44.565Z,6.72
2023-05-19T01:20:44.568Z,6.50
2023-05-19T01:21:44.680Z,6.60
2023-05-19T01:22:44.569Z,6.66
2023-05-19T01:23:44.577Z,4.68
2023-05-19T01:24:44.609Z,3.91
2023-05-19T01:25:44.660Z,4.27
2023-05-19T01:26:44.605Z,5.36
2023-05-19T01:27:44.624Z,5.53
2023-05-19T01:28:44.582Z,5.54
2023-05-19T01:29:44.574Z,4.79
2023-05-19T01:30:44.667Z,3.90
2023-05-19T01:31:44.610Z,3.73
2023-05-19T01:32:44.609Z,4.07
2023-05-19T01:33:44.628Z,4.42
2023-05-19T01:34:44.613Z,4.27
2023-05-19T01:35:44.623Z,3.88
2023-05-19T01:36:44.701Z,5.19
2023-05-19T01:37:44.681Z,6.17
2023-05-19T01:38:44.686Z,6.10
2023-05-19T01:39:44.737Z,6.38
2023-05-19T01:40:44.730Z,6.89
2023-05-19T01:41:44.725Z,8.02
2023-05-19T01:42:44.779Z,8.50
2023-05-19T01:43:44.780Z,7.14
2023-05-19T01:44:44.745Z,6.17
2023-05-19T01:45:44.797Z,7.51
2023-05-19T01:46:44.815Z,6.55
2023-05-19T01:47:44.841Z,6.32
2023-05-19T01:48:44.811Z,6.23
2023-05-19T01:49:44.824Z,7.11
2023-05-19T01:50:44.829Z,6.79
2023-05-19T01:51:44.831Z,6.02
2023-05-19T01:52:44.855Z,7.38
2023-05-19T01:53:44.867Z,7.83
2023-05-19T01:54:45.085Z,9.42
2023-05-19T01:55:44.899Z,9.13
2023-05-19T01:56:44.883Z,9.32
2023-05-19T01:57:44.868Z,9.55
2023-05-19T01:58:44.868Z,9.05
2023-05-19T01:59:44.902Z,9.60
2023-05-19T02:00:44.928Z,10.15
2023-05-19T02:01:45.086Z,11.12
2023-05-19T02:02:44.987Z,11.97
2023-05-19T02:03:44.923Z,12.54
2023-05-19T02:04:45.008Z,12.10
2023-05-19T02:05:44.937Z,11.43
2023-05-19T02:06:44.938Z,11.43
2023-05-19T02:07:45.015Z,11.90
2023-05-19T02:08:44.920Z,12.08
2023-05-19T02:09:44.972Z,9.98
2023-05-19T02:10:45.009Z,9.63
2023-05-19T02:11:44.994Z,9.06
2023-05-19T02:12:45.012Z,10.32
2023-05-19T02:13:44.997Z,13.60
2023-05-19T02:14:45.031Z,13.77
2023-05-19T02:15:45.056Z,15.72
2023-05-19T02:16:45.132Z,14.94
2023-05-19T02:17:45.120Z,13.42
2023-05-19T02:18:45.249Z,11.68
2023-05-19T02:19:45.140Z,11.57
2023-05-19T02:20:45.184Z,13.40
2023-05-19T02:21:45.234Z,14.02
2023-05-19T02:22:45.239Z,15.20
2023-05-19T02:23:45.316Z,16.36
2023-05-19T02:24:45.297Z,16.84
2023-05-19T02:25:45.342Z,12.98
2023-05-19T02:26:45.386Z,12.18
2023-05-19T02:27:45.378Z,12.61
2023-05-19T02:28:45.425Z,15.55
2023-05-19T02:29:45.430Z,15.07
2023-05-19T02:30:45.494Z,15.97
2023-05-19T02:31:45.578Z,18.43
2023-05-19T02:32:45.567Z,17.97
2023-05-19T02:33:45.598Z,19.82
2023-05-19T02:34:45.704Z,22.73
2023-05-19T02:35:45.673Z,23.45
2023-05-19T02:36:45.691Z,34.92
2023-05-19T02:37:45.733Z,38.97
2023-05-19T02:38:45.788Z,40.77
2023-05-19T02:39:45.824Z,43.06
2023-05-19T02:40:45.877Z,44.88
2023-05-19T02:41:45.911Z,45.65
2023-05-19T02:42:45.950Z,44.75
2023-05-19T02:43:46.001Z,45.98
2023-05-19T02:44:46.026Z,47.44
2023-05-19T02:45:46.101Z,44.30
2023-05-19T02:46:46.232Z,44.27
2023-05-19T02:47:46.318Z,38.85
2023-05-19T02:48:46.251Z,29.69
2023-05-19T02:49:46.289Z,25.94
2023-05-19T02:50:46.371Z,28.69
2023-05-19T02:51:46.416Z,27.21
2023-05-19T02:52:46.475Z,23.50
2023-05-19T02:53:46.475Z,25.74
2023-05-19T02:54:46.523Z,29.11
2023-05-19T02:55:46.598Z,23.60
2023-05-19T02:56:46.594Z,26.25
2023-05-19T02:57:46.659Z,24.80
2023-05-19T02:58:46.702Z,25.20
2023-05-19T02:59:46.777Z,23.02
2023-05-19T03:00:46.801Z,23.92
2023-05-19T03:01:46.907Z,25.74
2023-05-19T03:02:47.073Z,25.38
2023-05-19T03:03:47.097Z,25.83
2023-05-19T03:04:47.023Z,24.77
2023-05-19T03:05:47.110Z,24.23
2023-05-19T03:06:47.118Z,23.27
2023-05-19T03:07:47.183Z,23.56
2023-05-19T03:08:47.235Z,30.27
2023-05-19T03:09:47.323Z,36.04
2023-05-19T03:10:47.361Z,29.15
2023-05-19T03:11:47.425Z,32.12
2023-05-19T03:12:47.420Z,26.73
2023-05-19T03:13:47.478Z,23.66
2023-05-19T03:14:47.565Z,21.84
2023-05-19T03:15:47.672Z,23.72
2023-05-19T03:16:47.839Z,26.15
2023-05-19T03:17:47.833Z,26.36
2023-05-19T03:18:47.877Z,25.97
2023-05-19T03:19:47.823Z,23.81
2023-05-19T03:20:47.904Z,21.55
2023-05-19T03:21:47.958Z,20.30
2023-05-19T03:22:48.013Z,19.74
2023-05-19T03:23:48.059Z,16.60
2023-05-19T03:24:48.122Z,18.44
2023-05-19T03:25:48.184Z,16.67
2023-05-19T03:26:48.221Z,16.00
2023-05-19T03:27:48.299Z,19.04
2023-05-19T03:28:48.359Z,19.11
2023-05-19T03:29:48.431Z,19.32
2023-05-19T03:30:48.491Z,20.76
2023-05-19T03:31:48.535Z,24.04
2023-05-19T03:32:48.684Z,27.72
2023-05-19T03:33:48.635Z,29.87
2023-05-19T03:34:48.697Z,27.16
2023-05-19T03:35:48.779Z,28.25
2023-05-19T03:36:48.834Z,28.23
2023-05-19T03:37:48.898Z,27.83
2023-05-19T03:38:48.963Z,26.24
2023-05-19T03:39:48.925Z,28.30
2023-05-19T03:40:49.016Z,30.84
2023-05-19T03:41:49.064Z,28.73
2023-05-19T03:42:49.070Z,26.98
2023-05-19T03:43:49.128Z,24.82
2023-05-19T03:44:49.173Z,24.90
2023-05-19T03:45:49.288Z,26.89
2023-05-19T03:46:49.298Z,29.71
2023-05-19T03:47:49.379Z,33.78
2023-05-19T03:48:49.355Z,34.24
2023-05-19T03:49:49.369Z,30.99
2023-05-19T03:50:49.388Z,30.40
2023-05-19T03:51:49.380Z,31.10
2023-05-19T03:52:49.403Z,30.93
2023-05-19T03:53:49.428Z,29.38
2023-05-19T03:54:49.427Z,29.75
2023-05-19T03:55:49.404Z,32.58
2023-05-19T03:56:49.463Z,32.89
2023-05-19T03:57:49.419Z,35.84
2023-05-19T03:58:49.460Z,39.03
2023-05-19T03:59:49.492Z,40.32
2023-05-19T04:00:49.554Z,42.63
2023-05-19T04:01:49.558Z,37.43
2023-05-19T04:02:49.725Z,36.49
2023-05-19T04:03:49.581Z,39.65
2023-05-19T04:04:49.665Z,41.24
2023-05-19T04:05:49.597Z,39.74
2023-05-19T04:06:49.586Z,40.80
2023-05-19T04:07:49.619Z,41.93
2023-05-19T04:08:49.610Z,41.10
2023-05-19T04:09:49.682Z,38.11
2023-05-19T04:10:49.696Z,37.95
2023-05-19T04:11:49.690Z,40.34
2023-05-19T04:12:50.020Z,36.50
2023-05-19T04:13:49.680Z,33.42
2023-05-19T04:14:49.690Z,33.15
2023-05-19T04:15:49.723Z,36.11
2023-05-19T04:16:49.745Z,39.04
2023-05-19T04:17:49.735Z,41.58
2023-05-19T04:18:49.816Z,43.74
2023-05-19T04:19:49.784Z,49.11
2023-05-19T04:20:49.851Z,50.98
2023-05-19T04:21:49.912Z,60.69
2023-05-19T04:22:49.943Z,62.82
2023-05-19T04:23:50.027Z,61.84
2023-05-19T04:24:50.037Z,46.92
2023-05-19T04:25:50.130Z,41.51
2023-05-19T04:26:50.144Z,36.54
2023-05-19T04:27:50.174Z,29.10
2023-05-19T04:28:50.177Z,30.27
2023-05-19T04:29:50.197Z,29.93
2023-05-19T04:30:50.234Z,25.05
2023-05-19T04:31:50.208Z,22.36
2023-05-19T04:32:50.291Z,25.07
2023-05-19T04:33:50.197Z,23.89
2023-05-19T04:34:50.254Z,26.43
2023-05-19T04:35:50.331Z,34.68
2023-05-19T04:36:52.457Z,33.37
2023-05-19T04:37:50.266Z,30.09
2023-05-19T04:38:50.245Z,23.56
2023-05-19T04:39:50.239Z,14.34
2023-05-19T04:40:50.451Z,13.31
2023-05-19T04:41:50.249Z,11.65
2023-05-19T04:42:50.220Z,11.07
2023-05-19T04:43:50.252Z,10.70
2023-05-19T04:44:50.201Z,11.90
2023-05-19T04:45:50.260Z,12.50
2023-05-19T04:46:50.330Z,14.07
2023-05-19T04:47:50.203Z,13.99
2023-05-19T04:48:51.389Z,17.56
2023-05-19T04:49:50.221Z,22.95
2023-05-19T04:50:50.190Z,24.49
2023-05-19T04:51:50.161Z,24.86
2023-05-19T04:52:50.165Z,23.73
2023-05-19T04:53:50.158Z,23.60
2023-05-19T04:54:50.209Z,26.69
2023-05-19T04:55:50.143Z,27.63
2023-05-19T04:56:50.129Z,26.90
2023-05-19T04:57:50.132Z,21.22
2023-05-19T04:58:50.088Z,20.47
2023-05-19T04:59:50.065Z,19.83
2023-05-19T05:02:09.898Z,0.50
2023-05-19T05:03:09.923Z,0.50
2023-05-19T05:04:09.904Z,0.50
2023-05-19T05:05:09.843Z,0.50
2023-05-19T05:06:09.837Z,0.50
2023-05-19T05:07:09.794Z,0.54
2023-05-19T05:08:09.841Z,0.51
2023-05-19T05:09:09.797Z,0.56
2023-05-19T05:10:09.821Z,0.51
2023-05-19T05:11:09.809Z,0.48
2023-05-19T05:12:09.873Z,0.48
2023-05-19T05:13:11.735Z,0.51
2023-05-19T05:14:09.798Z,0.48
2023-05-19T05:15:09.730Z,0.50
2023-05-19T05:16:09.851Z,0.50
2023-05-19T05:17:09.714Z,0.55
2023-05-19T05:18:09.770Z,0.50
2023-05-19T05:19:09.800Z,0.49
2023-05-19T05:20:09.749Z,0.50
2023-05-19T05:21:09.848Z,0.55
2023-05-19T05:22:09.834Z,0.57
2023-05-19T05:23:09.903Z,0.60
2023-05-19T05:24:09.880Z,0.57
2023-05-19T05:25:09.920Z,0.53
2023-05-19T05:26:09.961Z,0.50
2023-05-19T05:27:09.965Z,0.51
2023-05-19T05:28:09.967Z,0.51
2023-05-19T05:29:09.981Z,0.53
2023-05-19T05:30:09.989Z,0.52
2023-05-19T05:31:10.098Z,0.56
2023-05-19T05:32:10.063Z,0.50
2023-05-19T05:33:10.212Z,0.46
2023-05-19T05:34:10.120Z,0.37
2023-05-19T05:35:10.129Z,0.44
2023-05-19T05:36:10.137Z,0.52
2023-05-19T05:37:10.198Z,0.55
2023-05-19T05:38:10.144Z,0.57
2023-05-19T05:39:10.210Z,0.68
2023-05-19T05:40:10.250Z,0.65
2023-05-19T05:41:10.232Z,0.80
2023-05-19T05:42:10.226Z,1.00
2023-05-19T05:43:10.284Z,1.03
2023-05-19T05:44:10.296Z,1.12
2023-05-19T05:45:10.329Z,1.16
2023-05-19T05:47:30.304Z,0.50
2023-05-19T05:48:30.251Z,0.50
2023-05-19T05:49:30.240Z,0.50
2023-05-19T05:50:30.220Z,0.50
2023-05-19T05:51:30.234Z,0.50
2023-05-19T05:52:30.206Z,0.52
2023-05-19T05:53:30.215Z,0.50
2023-05-19T05:54:30.191Z,0.50
2023-05-19T05:55:30.349Z,0.50
2023-05-19T05:56:30.183Z,0.48
2023-05-19T05:57:30.180Z,0.55
2023-05-19T05:58:30.177Z,0.72
2023-05-19T05:59:30.165Z,0.75
2023-05-19T06:00:30.419Z,0.83
2023-05-19T06:01:30.144Z,0.81
2023-05-19T06:02:30.235Z,0.78
2023-05-19T06:03:30.218Z,0.80
2023-05-19T06:04:30.180Z,1.00
2023-05-19T06:05:30.293Z,1.26
2023-05-19T06:06:30.205Z,1.34
2023-05-19T06:07:30.248Z,1.29
2023-05-19T06:08:30.260Z,1.03
2023-05-19T06:09:30.371Z,0.98
2023-05-19T06:10:30.439Z,0.99
2023-05-19T06:11:30.364Z,1.23
2023-05-19T06:12:30.349Z,1.19
2023-05-19T06:13:30.452Z,1.06
2023-05-19T06:14:30.427Z,1.14
2023-05-19T06:15:30.541Z,1.24
2023-05-19T06:16:30.550Z,1.23
2023-05-19T06:17:30.523Z,1.24
2023-05-19T06:18:30.592Z,1.10
2023-05-19T06:19:30.594Z,1.14
2023-05-19T06:20:30.731Z,1.42
2023-05-19T06:21:30.937Z,1.87
2023-05-19T06:22:30.575Z,2.19
2023-05-19T06:23:30.639Z,2.21
2023-05-19T06:24:30.743Z,2.00
2023-05-19T06:25:30.920Z,2.73
2023-05-19T06:26:30.854Z,2.53
2023-05-19T06:27:32.567Z,2.10
2023-05-19T06:28:30.767Z,1.96
2023-05-19T06:29:30.763Z,1.87
2023-05-19T06:30:30.942Z,1.63
2023-05-19T06:31:30.832Z,1.79
2023-05-19T06:32:30.827Z,1.48
2023-05-19T06:33:30.811Z,1.34
2023-05-19T06:34:30.803Z,1.50
2023-05-19T06:35:30.890Z,1.53
2023-05-19T06:36:30.732Z,0.92
2023-05-19T06:37:30.728Z,0.64
2023-05-19T06:38:30.724Z,0.63
2023-05-19T06:39:30.739Z,0.66
2023-05-19T06:40:30.934Z,0.55
2023-05-19T06:41:30.745Z,0.52
2023-05-19T06:42:31.887Z,0.52
2023-05-19T06:43:30.667Z,0.57
2023-05-19T06:44:30.669Z,0.50
2023-05-19T06:45:30.685Z,0.53
2023-05-19T06:46:30.708Z,0.50
2023-05-19T06:47:30.767Z,0.50
2023-05-19T06:48:30.706Z,0.51
2023-05-19T06:49:31.927Z,0.59
2023-05-19T06:50:30.685Z,0.38
2023-05-19T06:51:31.687Z,0.34
2023-05-19T06:52:30.601Z,0.35
2023-05-19T06:53:30.631Z,0.44
2023-05-19T06:54:30.551Z,0.53
2023-05-19T06:55:30.647Z,0.64
2023-05-19T06:56:30.632Z,0.55
2023-05-19T06:57:30.557Z,0.48
2023-05-19T06:58:30.666Z,0.50
2023-05-19T06:59:30.555Z,0.50
2023-05-19T07:00:30.554Z,0.45
2023-05-19T07:01:30.667Z,0.50
2023-05-19T07:02:30.643Z,0.61
2023-05-19T07:03:30.698Z,0.95
2023-05-19T07:04:30.574Z,1.21
2023-05-19T07:05:30.503Z,1.88
2023-05-19T07:06:30.490Z,1.25
2023-05-19T07:07:30.537Z,0.60
2023-05-19T07:08:30.485Z,0.50
2023-05-19T07:09:30.510Z,0.52
2023-05-19T07:10:30.771Z,0.54
2023-05-19T07:11:30.494Z,0.71
2023-05-19T07:12:30.577Z,0.66
2023-05-19T07:13:30.532Z,0.57
2023-05-19T07:14:30.445Z,0.74
2023-05-19T07:15:30.451Z,0.96
2023-05-19T07:16:30.537Z,0.91
2023-05-19T07:17:30.479Z,0.93
2023-05-19T07:18:30.573Z,1.13
2023-05-19T07:19:30.718Z,1.51
2023-05-19T07:20:30.854Z,1.46
2023-05-19T07:21:30.711Z,0.77
2023-05-19T07:22:30.734Z,0.63
2023-05-19T07:23:30.818Z,0.58
2023-05-19T07:24:30.802Z,0.55
2023-05-19T07:25:30.823Z,0.49
2023-05-19T07:26:31.204Z,0.47
2023-05-19T07:27:30.945Z,0.53
2023-05-19T07:28:30.887Z,0.43
2023-05-19T07:29:30.964Z,0.44
2023-05-19T07:30:31.313Z,0.50
2023-05-19T07:31:31.106Z,0.50
2023-05-19T07:32:31.108Z,0.49
2023-05-19T07:33:31.098Z,0.50
2023-05-19T07:34:31.088Z,0.52
2023-05-19T07:35:31.107Z,0.60
2023-05-19T07:36:31.221Z,0.73
2023-05-19T07:37:31.228Z,0.81
2023-05-19T07:38:31.273Z,0.74
2023-05-19T07:39:31.170Z,0.99
2023-05-19T07:40:31.617Z,0.99
2023-05-19T07:41:31.223Z,1.05
2023-05-19T07:42:31.282Z,1.64
2023-05-19T07:43:31.359Z,0.90
2023-05-19T07:44:31.452Z,0.99
2023-05-19T07:45:31.450Z,0.47
2023-05-19T07:46:31.562Z,0.44
2023-05-19T07:47:31.543Z,0.53
2023-05-19T07:48:31.604Z,0.57
2023-05-19T07:49:31.581Z,0.54
2023-05-19T07:50:31.747Z,0.50
2023-05-19T07:51:31.652Z,0.56
2023-05-19T07:52:31.630Z,0.70
2023-05-19T07:53:31.695Z,0.97
2023-05-19T07:54:31.745Z,1.20
2023-05-19T07:55:31.745Z,1.47
2023-05-19T07:56:31.798Z,1.50
2023-05-19T07:57:31.868Z,1.32
2023-05-19T07:58:31.948Z,1.92
2023-05-19T07:59:31.982Z,2.17
2023-05-19T08:00:32.207Z,1.98
2023-05-19T08:01:32.019Z,1.92
2023-05-19T08:02:32.134Z,1.60
2023-05-19T08:03:32.163Z,1.92
2023-05-19T08:04:31.986Z,1.46
2023-05-19T08:05:32.535Z,1.90
2023-05-19T08:06:32.034Z,2.00
2023-05-19T08:07:32.033Z,2.38
2023-05-19T08:08:32.015Z,2.77
2023-05-19T08:09:32.138Z,3.20
2023-05-19T08:10:32.237Z,3.54
2023-05-19T08:11:32.174Z,3.06
2023-05-19T08:12:32.262Z,2.05
2023-05-19T08:13:32.183Z,1.53
2023-05-19T08:14:32.298Z,1.77
2023-05-19T08:15:32.870Z,2.43
2023-05-19T08:16:32.461Z,2.59
2023-05-19T08:17:32.564Z,2.81
2023-05-19T08:18:32.531Z,1.54
2023-05-19T08:19:32.709Z,1.30
2023-05-19T08:20:32.936Z,0.84
2023-05-19T08:21:32.685Z,0.85
2023-05-19T08:22:32.765Z,1.12
2023-05-19T08:23:32.795Z,1.09
2023-05-19T08:24:32.904Z,0.68
2023-05-19T08:25:32.856Z,0.50
2023-05-19T08:26:34.121Z,0.52
2023-05-19T08:27:32.946Z,0.49
2023-05-19T08:28:32.903Z,0.51
2023-05-19T08:29:32.990Z,0.51
2023-05-19T08:30:33.173Z,0.65
2023-05-19T08:31:33.047Z,0.84
2023-05-19T08:32:33.204Z,0.81
2023-05-19T08:33:33.058Z,0.69
2023-05-19T08:34:33.124Z,0.70
2023-05-19T08:35:33.067Z,0.81
2023-05-19T08:36:33.108Z,0.54
2023-05-19T08:37:34.070Z,0.48
2023-05-19T08:38:33.268Z,0.59
2023-05-19T08:39:33.269Z,0.61
2023-05-19T08:40:33.622Z,0.51
2023-05-19T08:41:33.424Z,0.59
2023-05-19T08:42:33.470Z,0.59
2023-05-19T08:43:33.513Z,0.56
2023-05-19T08:44:33.560Z,0.67
2023-05-19T08:45:33.735Z,0.91
2023-05-19T08:46:33.711Z,0.75
2023-05-19T08:47:33.834Z,0.73
2023-05-19T08:48:33.803Z,0.59
2023-05-19T08:49:33.814Z,0.52
2023-05-19T08:50:34.052Z,0.39
2023-05-19T08:51:33.877Z,0.44
2023-05-19T08:52:33.923Z,0.84
2023-05-19T08:53:34.752Z,1.08
2023-05-19T08:54:33.963Z,1.23
2023-05-19T08:55:34.424Z,0.88
2023-05-19T08:56:34.015Z,0.87
2023-05-19T08:57:33.953Z,0.80
2023-05-19T08:58:34.031Z,0.67
2023-05-19T08:59:34.043Z,0.62
2023-05-19T09:00:34.350Z,0.77
2023-05-19T09:02:34.224Z,0.85
2023-05-19T09:03:34.203Z,0.72
2023-05-19T09:04:34.395Z,0.69
2023-05-19T09:05:34.479Z,0.96
2023-05-19T09:06:34.179Z,1.41
2023-05-19T09:07:34.208Z,1.21
2023-05-19T09:08:34.214Z,0.96
2023-05-19T09:09:34.341Z,1.02
2023-05-19T09:10:34.363Z,1.34
2023-05-19T09:11:34.408Z,1.76
2023-05-19T09:12:34.473Z,1.81
2023-05-19T09:13:34.537Z,1.08
2023-05-19T09:14:34.534Z,1.29
2023-05-19T09:15:34.925Z,1.08
2023-05-19T09:16:34.602Z,0.59
2023-05-19T09:17:34.615Z,0.58
2023-05-19T09:18:34.702Z,0.65
2023-05-19T09:19:34.776Z,0.76
2023-05-19T09:20:34.675Z,0.79
2023-05-19T09:21:34.708Z,0.97
2023-05-19T09:22:34.703Z,0.88
2023-05-19T09:23:34.720Z,0.72
2023-05-19T09:24:34.784Z,0.76
2023-05-19T09:25:35.002Z,0.77
2023-05-19T09:26:34.780Z,0.93
2023-05-19T09:27:34.833Z,1.11
2023-05-19T09:28:34.830Z,0.88
2023-05-19T09:29:34.851Z,0.74
2023-05-19T09:30:34.868Z,0.65
2023-05-19T09:31:34.911Z,0.47
2023-05-19T09:32:34.925Z,0.52
2023-05-19T09:33:34.933Z,0.64
2023-05-19T09:34:34.892Z,0.74
2023-05-19T09:35:35.251Z,0.75
2023-05-19T09:36:34.904Z,0.80
2023-05-19T09:37:34.918Z,0.95
2023-05-19T09:38:35.019Z,0.69
2023-05-19T09:39:35.047Z,0.68
2023-05-19T09:40:35.145Z,0.54
2023-05-19T09:41:35.154Z,0.73
2023-05-19T09:42:35.183Z,1.52
2023-05-19T09:43:35.201Z,1.53
2023-05-19T09:44:35.238Z,1.28
2023-05-19T09:45:35.247Z,0.88
2023-05-19T09:46:35.426Z,0.69
2023-05-19T09:47:35.378Z,0.91
2023-05-19T09:48:35.307Z,0.79
2023-05-19T09:49:35.321Z,0.63
2023-05-19T09:50:35.359Z,0.71
2023-05-19T09:51:35.426Z,0.80
2023-05-19T09:52:35.527Z,0.57
2023-05-19T09:53:35.528Z,0.51
2023-05-19T09:54:35.554Z,0.73
2023-05-19T09:55:35.604Z,0.54
2023-05-19T09:56:35.530Z,0.76
2023-05-19T09:57:35.659Z,0.91
2023-05-19T09:58:35.725Z,1.04
2023-05-19T09:59:35.676Z,1.14
2023-05-19T10:00:35.680Z,1.07
2023-05-19T10:01:35.691Z,0.60
2023-05-19T10:02:35.718Z,0.73
2023-05-19T10:03:35.691Z,0.56
2023-05-19T10:04:35.720Z,0.75
2023-05-19T10:05:35.889Z,0.68
2023-05-19T10:06:35.725Z,0.68
2023-05-19T10:07:35.825Z,0.56
2023-05-19T10:08:35.747Z,0.53
2023-05-19T10:09:35.816Z,0.37
2023-05-19T10:10:35.902Z,0.34
2023-05-19T10:11:35.904Z,0.43
2023-05-19T10:12:35.872Z,0.65
2023-05-19T10:13:35.976Z,0.76
2023-05-19T10:14:35.975Z,0.61
2023-05-19T10:15:40.642Z,0.78
2023-05-19T10:16:37.080Z,0.78
2023-05-19T10:17:35.966Z,0.80
2023-05-19T10:18:37.539Z,0.92
2023-05-19T10:19:36.008Z,0.90
2023-05-19T10:20:35.936Z,0.91
2023-05-19T10:21:35.936Z,0.66
2023-05-19T10:22:35.985Z,0.59
2023-05-19T10:23:35.922Z,0.71
2023-05-19T10:24:35.934Z,0.70
2023-05-19T10:25:35.908Z,0.99
2023-05-19T10:26:35.968Z,1.01
2023-05-19T10:27:36.512Z,1.49
2023-05-19T10:28:35.904Z,1.46
2023-05-19T10:29:35.878Z,0.77
2023-05-19T10:30:35.891Z,0.69
2023-05-19T10:31:35.984Z,1.19
2023-05-19T10:32:35.923Z,1.49
2023-05-19T10:33:35.850Z,1.64
2023-05-19T10:34:35.916Z,1.48
2023-05-19T10:35:36.099Z,1.64
2023-05-19T10:36:35.910Z,2.29
2023-05-19T10:37:35.856Z,3.34
2023-05-19T10:38:35.843Z,3.86
2023-05-19T10:39:35.836Z,3.92
2023-05-19T10:40:35.788Z,2.82
2023-05-19T10:41:35.772Z,2.67
2023-05-19T10:42:35.764Z,2.30
2023-05-19T10:43:35.795Z,2.87
2023-05-19T10:44:35.791Z,3.98
2023-05-19T10:45:36.011Z,2.34
2023-05-19T10:46:35.733Z,2.94
2023-05-19T10:47:35.821Z,2.25
2023-05-19T10:48:35.732Z,1.94
2023-05-19T10:49:35.743Z,2.01
2023-05-19T10:50:35.753Z,2.57
2023-05-19T10:51:35.745Z,2.59
2023-05-19T10:52:35.737Z,3.37
2023-05-19T10:53:35.787Z,3.41
2023-05-19T10:54:35.762Z,3.79
2023-05-19T10:55:35.809Z,2.64
2023-05-19T10:56:35.706Z,2.16
2023-05-19T10:57:35.707Z,2.65
2023-05-19T10:58:35.687Z,2.33
2023-05-19T10:59:35.682Z,2.78
2023-05-19T11:00:35.695Z,3.27
2023-05-19T11:01:35.747Z,4.23
2023-05-19T11:02:35.708Z,5.87
2023-05-19T11:03:35.691Z,4.88
2023-05-19T11:04:35.671Z,3.27
2023-05-19T11:05:35.812Z,2.51
2023-05-19T11:06:35.638Z,2.87
2023-05-19T11:07:35.633Z,4.28
2023-05-19T11:08:35.658Z,2.38
2023-05-19T11:09:40.593Z,2.97
2023-05-19T11:10:36.598Z,2.91
2023-05-19T11:11:35.562Z,2.36
2023-05-19T11:12:35.660Z,2.13
2023-05-19T11:13:36.730Z,1.91
2023-05-19T11:14:35.572Z,2.04
2023-05-19T11:15:35.601Z,1.60
2023-05-19T11:16:35.659Z,2.49
2023-05-19T11:17:35.579Z,2.59
2023-05-19T11:18:35.607Z,2.45
2023-05-19T11:19:35.652Z,2.03
2023-05-19T11:20:35.576Z,2.38
2023-05-19T11:21:35.612Z,1.88
2023-05-19T11:22:36.146Z,1.86
2023-05-19T11:23:35.798Z,1.69
2023-05-19T11:24:35.653Z,1.84
2023-05-19T11:25:35.653Z,2.12
2023-05-19T11:26:35.691Z,3.30
2023-05-19T11:27:35.701Z,3.13
2023-05-19T11:28:35.747Z,2.58
2023-05-19T11:29:35.807Z,2.58
2023-05-19T11:30:35.719Z,2.65
2023-05-19T11:31:35.858Z,2.16
2023-05-19T11:32:35.982Z,2.21
2023-05-19T11:33:35.824Z,2.98
2023-05-19T11:34:35.854Z,2.84
2023-05-19T11:35:36.372Z,2.92
2023-05-19T11:36:35.863Z,3.44
2023-05-19T11:37:35.955Z,3.45
2023-05-19T11:38:35.977Z,3.43
2023-05-19T11:39:36.072Z,4.42
2023-05-19T11:40:36.089Z,5.21
2023-05-19T11:41:36.100Z,3.83
2023-05-19T11:42:36.159Z,2.81
2023-05-19T11:43:36.188Z,3.64
2023-05-19T11:44:36.292Z,3.88
2023-05-19T11:45:36.536Z,3.83
2023-05-19T11:46:36.277Z,4.32
2023-05-19T11:47:47.414Z,2.71
2023-05-19T11:48:37.343Z,2.17
2023-05-19T11:49:36.267Z,2.34
2023-05-19T11:50:36.282Z,2.88
2023-05-19T11:51:36.242Z,2.74
2023-05-19T11:52:36.275Z,2.30
2023-05-19T11:53:36.220Z,1.01
2023-05-19T11:54:36.186Z,1.12
2023-05-19T11:55:36.222Z,1.15
2023-05-19T11:56:36.184Z,1.94
2023-05-19T11:57:36.192Z,2.73
2023-05-19T11:58:36.190Z,2.61
2023-05-19T11:59:37.734Z,2.30
2023-05-19T12:00:36.213Z,1.61
2023-05-19T12:01:36.219Z,1.87
2023-05-19T12:02:36.417Z,1.59
2023-05-19T12:03:36.471Z,1.74
2023-05-19T12:04:36.287Z,2.23
2023-05-19T12:05:39.844Z,1.67
2023-05-19T12:06:37.315Z,1.67
2023-05-19T12:07:36.361Z,1.56
2023-05-19T12:08:36.188Z,1.64
2023-05-19T12:09:36.257Z,1.12
2023-05-19T12:10:36.236Z,0.84
2023-05-19T12:11:36.206Z,0.62
2023-05-19T12:12:36.186Z,0.61
2023-05-19T12:13:36.202Z,0.52
2023-05-19T12:14:36.230Z,0.50
2023-05-19T12:15:36.229Z,0.63
2023-05-19T12:16:36.252Z,0.72
2023-05-19T12:17:36.236Z,0.50
2023-05-19T12:18:36.184Z,0.58
2023-05-19T12:19:36.260Z,0.55
2023-05-19T12:20:36.635Z,0.59
2023-05-19T12:21:36.322Z,0.53
2023-05-19T12:22:36.321Z,0.55
2023-05-19T12:23:36.358Z,0.48
2023-05-19T12:24:36.434Z,0.49
2023-05-19T12:25:36.647Z,0.60
2023-05-19T12:26:36.417Z,0.87
2023-05-19T12:27:36.523Z,1.07
2023-05-19T12:28:36.504Z,1.29
2023-05-19T12:29:36.499Z,0.93
2023-05-19T12:30:36.799Z,0.99
2023-05-19T12:31:36.563Z,0.82
2023-05-19T12:32:36.595Z,0.94
2023-05-19T12:33:36.599Z,1.01
2023-05-19T12:34:36.593Z,0.77
2023-05-19T12:35:36.657Z,0.96
2023-05-19T12:36:36.761Z,0.99
2023-05-19T12:37:36.781Z,0.80
2023-05-19T12:38:36.781Z,0.72
2023-05-19T12:39:36.792Z,0.40
2023-05-19T12:40:37.196Z,0.43
2023-05-19T12:41:36.971Z,0.63
2023-05-19T12:42:36.980Z,0.65
2023-05-19T12:43:36.912Z,0.66
2023-05-19T12:44:36.984Z,0.63
2023-05-19T12:45:37.277Z,0.54
2023-05-19T12:46:37.065Z,0.68
2023-05-19T12:47:37.086Z,0.80
2023-05-19T12:48:37.051Z,0.76
2023-05-19T12:49:37.059Z,0.86
2023-05-19T12:50:37.153Z,0.82
2023-05-19T12:51:37.121Z,1.08
2023-05-19T12:52:37.183Z,1.15
2023-05-19T12:53:37.200Z,1.29
2023-05-19T12:54:37.316Z,0.96
2023-05-19T12:55:37.230Z,0.81
2023-05-19T12:56:37.312Z,0.68
2023-05-19T12:57:37.328Z,0.74
2023-05-19T12:58:37.381Z,0.84
2023-05-19T12:59:54.882Z,0.91
2023-05-19T13:00:38.478Z,0.66
2023-05-19T13:01:37.431Z,0.76
2023-05-19T13:02:37.480Z,0.93
2023-05-19T13:03:37.480Z,1.25
2023-05-19T13:04:37.374Z,1.16
2023-05-19T13:05:37.450Z,0.96
2023-05-19T13:06:37.378Z,1.25
2023-05-19T13:07:37.396Z,1.42
2023-05-19T13:08:37.399Z,1.57
2023-05-19T13:09:37.349Z,2.11
2023-05-19T13:10:37.314Z,2.44
2023-05-19T13:11:37.344Z,2.17
2023-05-19T13:12:37.411Z,1.92
2023-05-19T13:13:37.341Z,1.78
2023-05-19T13:14:37.445Z,1.95
2023-05-19T13:15:37.509Z,1.51
2023-05-19T13:16:37.664Z,1.30